sensor_id;sensor_type;location;lat;lon;timestamp;P1;durP1;ratioP1;P2;durP2;ratioP2
49730;SDS011;35622;52.008;5.426;2023-05-10T00:01:05;45.63;;;18.73;;
49730;SDS011;35622;52.008;5.426;2023-05-10T00:03:31;40.65;;;21.90;;
49730;SDS011;35622;52.008;5.426;2023-05-10T00:05:56;38.30;;;20.45;;
49730;SDS011;35622;52.008;5.426;2023-05-10T00:08:23;40.40;;;20.48;;
49730;SDS011;35622;52.008;5.426;2023-05-10T00:10:49;37.22;;;19.17;;
49730;SDS011;35622;52.008;5.426;2023-05-10T00:13:14;40.20;;;20.48;;
49730;SDS011;35622;52.008;5.426;2023-05-10T00:15:40;35.30;;;19.10;;
49730;SDS011;35622;52.008;5.426;2023-05-10T00:18:06;39.33;;;20.05;;
49730;SDS011;35622;52.008;5.426;2023-05-10T00:20:31;40.65;;;20.77;;
49730;SDS011;35622;52.008;5.426;2023-05-10T00:22:57;41.42;;;20.90;;
49730;SDS011;35622;52.008;5.426;2023-05-10T00:25:22;43.30;;;23.73;;
49730;SDS011;35622;52.008;5.426;2023-05-10T00:27:48;38.45;;;20.38;;
49730;SDS011;35622;52.008;5.426;2023-05-10T00:30:14;42.28;;;22.58;;
49730;SDS011;35622;52.008;5.426;2023-05-10T00:32:40;42.35;;;21.55;;
49730;SDS011;35622;52.008;5.426;2023-05-10T00:35:06;39.75;;;21.40;;
49730;SDS011;35622;52.008;5.426;2023-05-10T00:37:31;43.97;;;21.98;;
49730;SDS011;35622;52.008;5.426;2023-05-10T00:39:57;39.38;;;20.75;;
49730;SDS011;35622;52.008;5.426;2023-05-10T00:42:22;45.88;;;21.77;;
49730;SDS011;35622;52.008;5.426;2023-05-10T00:44:48;43.33;;;22.50;;
49730;SDS011;35622;52.008;5.426;2023-05-10T00:47:14;45.90;;;23.00;;
49730;SDS011;35622;52.008;5.426;2023-05-10T00:49:41;43.55;;;22.35;;
49730;SDS011;35622;52.008;5.426;2023-05-10T00:52:07;53.17;;;23.45;;
49730;SDS011;35622;52.008;5.426;2023-05-10T00:54:46;42.00;;;21.25;;
49730;SDS011;35622;52.008;5.426;2023-05-10T00:57:12;45.40;;;22.23;;
49730;SDS011;35622;52.008;5.426;2023-05-10T00:59:38;40.33;;;21.23;;
49730;SDS011;35622;52.008;5.426;2023-05-10T01:02:03;41.70;;;22.50;;
49730;SDS011;35622;52.008;5.426;2023-05-10T01:04:30;43.63;;;23.45;;
49730;SDS011;35622;52.008;5.426;2023-05-10T01:06:56;43.50;;;23.50;;
49730;SDS011;35622;52.008;5.426;2023-05-10T01:09:22;44.97;;;22.35;;
49730;SDS011;35622;52.008;5.426;2023-05-10T01:11:48;43.28;;;21.60;;
49730;SDS011;35622;52.008;5.426;2023-05-10T01:14:15;46.03;;;22.83;;
49730;SDS011;35622;52.008;5.426;2023-05-10T01:16:43;47.40;;;24.75;;
49730;SDS011;35622;52.008;5.426;2023-05-10T01:19:12;47.90;;;23.17;;
49730;SDS011;35622;52.008;5.426;2023-05-10T01:22:02;45.47;;;22.98;;
49730;SDS011;35622;52.008;5.426;2023-05-10T01:35:41;48.83;;;21.75;;
49730;SDS011;35622;52.008;5.426;2023-05-10T01:38:21;49.33;;;22.02;;
49730;SDS011;35622;52.008;5.426;2023-05-10T01:46:37;53.95;;;23.35;;
49730;SDS011;35622;52.008;5.426;2023-05-10T01:49:08;59.97;;;25.77;;
49730;SDS011;35622;52.008;5.426;2023-05-10T01:51:42;58.42;;;25.27;;
49730;SDS011;35622;52.008;5.426;2023-05-10T01:54:11;64.25;;;26.30;;
49730;SDS011;35622;52.008;5.426;2023-05-10T01:56:39;101.35;;;25.60;;
49730;SDS011;35622;52.008;5.426;2023-05-10T01:59:08;59.85;;;23.52;;
49730;SDS011;35622;52.008;5.426;2023-05-10T02:01:38;57.08;;;23.55;;
49730;SDS011;35622;52.008;5.426;2023-05-10T02:04:05;64.93;;;24.33;;
49730;SDS011;35622;52.008;5.426;2023-05-10T02:06:32;64.05;;;22.60;;
49730;SDS011;35622;52.008;5.426;2023-05-10T02:08:58;57.15;;;24.75;;
49730;SDS011;35622;52.008;5.426;2023-05-10T02:11:26;69.80;;;25.23;;
49730;SDS011;35622;52.008;5.426;2023-05-10T02:13:53;70.20;;;26.60;;
49730;SDS011;35622;52.008;5.426;2023-05-10T02:16:20;67.53;;;26.88;;
49730;SDS011;35622;52.008;5.426;2023-05-10T02:18:51;69.68;;;27.35;;
49730;SDS011;35622;52.008;5.426;2023-05-10T02:21:17;69.78;;;28.17;;
49730;SDS011;35622;52.008;5.426;2023-05-10T02:23:45;77.07;;;30.10;;
49730;SDS011;35622;52.008;5.426;2023-05-10T02:26:14;69.22;;;27.08;;
49730;SDS011;35622;52.008;5.426;2023-05-10T02:28:40;73.45;;;28.77;;
49730;SDS011;35622;52.008;5.426;2023-05-10T02:31:07;73.57;;;29.73;;
49730;SDS011;35622;52.008;5.426;2023-05-10T02:33:34;74.15;;;29.95;;
49730;SDS011;35622;52.008;5.426;2023-05-10T02:36:01;67.70;;;28.92;;
49730;SDS011;35622;52.008;5.426;2023-05-10T02:38:28;77.82;;;30.25;;
49730;SDS011;35622;52.008;5.426;2023-05-10T02:40:55;75.97;;;28.33;;
49730;SDS011;35622;52.008;5.426;2023-05-10T02:43:22;79.65;;;31.05;;
49730;SDS011;35622;52.008;5.426;2023-05-10T02:45:48;70.38;;;29.17;;
49730;SDS011;35622;52.008;5.426;2023-05-10T02:48:14;73.75;;;28.02;;
49730;SDS011;35622;52.008;5.426;2023-05-10T02:50:41;76.93;;;30.60;;
49730;SDS011;35622;52.008;5.426;2023-05-10T02:53:10;77.88;;;30.35;;
49730;SDS011;35622;52.008;5.426;2023-05-10T02:55:40;80.90;;;31.83;;
49730;SDS011;35622;52.008;5.426;2023-05-10T02:58:08;75.63;;;32.28;;
49730;SDS011;35622;52.008;5.426;2023-05-10T03:00:34;81.60;;;31.33;;
49730;SDS011;35622;52.008;5.426;2023-05-10T03:03:01;86.05;;;33.92;;
49730;SDS011;35622;52.008;5.426;2023-05-10T03:05:27;72.03;;;31.02;;
49730;SDS011;35622;52.008;5.426;2023-05-10T03:07:52;82.75;;;33.63;;
49730;SDS011;35622;52.008;5.426;2023-05-10T03:10:19;77.90;;;31.17;;
49730;SDS011;35622;52.008;5.426;2023-05-10T03:13:05;85.95;;;32.80;;
49730;SDS011;35622;52.008;5.426;2023-05-10T03:18:11;81.10;;;32.78;;
49730;SDS011;35622;52.008;5.426;2023-05-10T03:20:47;77.57;;;31.90;;
49730;SDS011;35622;52.008;5.426;2023-05-10T03:26:02;78.47;;;33.63;;
49730;SDS011;35622;52.008;5.426;2023-05-10T03:28:30;77.38;;;31.38;;
49730;SDS011;35622;52.008;5.426;2023-05-10T03:30:58;82.75;;;34.25;;
49730;SDS011;35622;52.008;5.426;2023-05-10T03:33:24;77.45;;;30.67;;
49730;SDS011;35622;52.008;5.426;2023-05-10T03:35:50;80.50;;;31.60;;
49730;SDS011;35622;52.008;5.426;2023-05-10T03:38:15;78.05;;;32.78;;
49730;SDS011;35622;52.008;5.426;2023-05-10T03:40:41;84.63;;;31.80;;
49730;SDS011;35622;52.008;5.426;2023-05-10T03:43:06;80.57;;;30.40;;
49730;SDS011;35622;52.008;5.426;2023-05-10T03:45:32;75.70;;;31.20;;
49730;SDS011;35622;52.008;5.426;2023-05-10T03:47:57;73.57;;;29.95;;
49730;SDS011;35622;52.008;5.426;2023-05-10T03:50:23;73.25;;;29.83;;
49730;SDS011;35622;52.008;5.426;2023-05-10T03:52:49;69.18;;;28.85;;
49730;SDS011;35622;52.008;5.426;2023-05-10T03:55:15;71.75;;;30.13;;
49730;SDS011;35622;52.008;5.426;2023-05-10T03:57:41;70.47;;;30.55;;
49730;SDS011;35622;52.008;5.426;2023-05-10T04:00:07;66.85;;;28.88;;
49730;SDS011;35622;52.008;5.426;2023-05-10T04:02:33;67.15;;;26.88;;
49730;SDS011;35622;52.008;5.426;2023-05-10T04:04:59;62.60;;;26.60;;
49730;SDS011;35622;52.008;5.426;2023-05-10T04:07:24;66.07;;;27.33;;
49730;SDS011;35622;52.008;5.426;2023-05-10T04:09:50;65.38;;;28.00;;
49730;SDS011;35622;52.008;5.426;2023-05-10T04:12:15;63.85;;;26.63;;
49730;SDS011;35622;52.008;5.426;2023-05-10T04:14:41;61.75;;;24.42;;
49730;SDS011;35622;52.008;5.426;2023-05-10T04:17:06;68.07;;;25.90;;
49730;SDS011;35622;52.008;5.426;2023-05-10T04:19:32;58.67;;;24.23;;
49730;SDS011;35622;52.008;5.426;2023-05-10T04:21:58;58.60;;;24.08;;
49730;SDS011;35622;52.008;5.426;2023-05-10T04:24:24;63.75;;;26.95;;
49730;SDS011;35622;52.008;5.426;2023-05-10T04:26:50;60.15;;;24.48;;
49730;SDS011;35622;52.008;5.426;2023-05-10T04:29:15;50.90;;;22.45;;
49730;SDS011;35622;52.008;5.426;2023-05-10T04:31:41;62.50;;;23.98;;
49730;SDS011;35622;52.008;5.426;2023-05-10T04:34:07;64.80;;;25.33;;
49730;SDS011;35622;52.008;5.426;2023-05-10T04:36:32;59.50;;;25.40;;
49730;SDS011;35622;52.008;5.426;2023-05-10T04:39:00;61.08;;;24.40;;
49730;SDS011;35622;52.008;5.426;2023-05-10T04:41:27;56.13;;;22.85;;
49730;SDS011;35622;52.008;5.426;2023-05-10T04:43:53;68.03;;;25.52;;
49730;SDS011;35622;52.008;5.426;2023-05-10T04:46:19;63.85;;;25.50;;
49730;SDS011;35622;52.008;5.426;2023-05-10T04:48:44;65.72;;;25.88;;
49730;SDS011;35622;52.008;5.426;2023-05-10T04:51:10;59.90;;;23.40;;
49730;SDS011;35622;52.008;5.426;2023-05-10T04:53:35;65.95;;;25.33;;
49730;SDS011;35622;52.008;5.426;2023-05-10T04:56:01;63.20;;;25.48;;
49730;SDS011;35622;52.008;5.426;2023-05-10T04:58:26;65.65;;;25.92;;
49730;SDS011;35622;52.008;5.426;2023-05-10T05:00:52;65.30;;;24.77;;
49730;SDS011;35622;52.008;5.426;2023-05-10T05:03:18;58.35;;;24.02;;
49730;SDS011;35622;52.008;5.426;2023-05-10T05:05:43;65.60;;;27.85;;
49730;SDS011;35622;52.008;5.426;2023-05-10T05:08:09;69.68;;;26.15;;
49730;SDS011;35622;52.008;5.426;2023-05-10T05:10:35;63.90;;;26.67;;
49730;SDS011;35622;52.008;5.426;2023-05-10T05:13:00;61.85;;;25.85;;
49730;SDS011;35622;52.008;5.426;2023-05-10T05:15:26;66.20;;;28.92;;
49730;SDS011;35622;52.008;5.426;2023-05-10T05:17:52;68.22;;;27.42;;
49730;SDS011;35622;52.008;5.426;2023-05-10T05:20:18;63.47;;;26.75;;
49730;SDS011;35622;52.008;5.426;2023-05-10T05:22:44;58.10;;;26.58;;
49730;SDS011;35622;52.008;5.426;2023-05-10T05:25:09;63.65;;;27.33;;
49730;SDS011;35622;52.008;5.426;2023-05-10T05:27:36;62.67;;;26.60;;
49730;SDS011;35622;52.008;5.426;2023-05-10T05:30:02;63.78;;;26.77;;
49730;SDS011;35622;52.008;5.426;2023-05-10T05:32:28;65.22;;;27.33;;
49730;SDS011;35622;52.008;5.426;2023-05-10T05:34:53;59.10;;;27.45;;
49730;SDS011;35622;52.008;5.426;2023-05-10T05:37:19;62.15;;;27.77;;
49730;SDS011;35622;52.008;5.426;2023-05-10T05:39:46;69.95;;;27.30;;
49730;SDS011;35622;52.008;5.426;2023-05-10T05:42:12;69.55;;;27.70;;
49730;SDS011;35622;52.008;5.426;2023-05-10T05:44:38;70.05;;;27.92;;
49730;SDS011;35622;52.008;5.426;2023-05-10T05:47:04;58.22;;;25.52;;
49730;SDS011;35622;52.008;5.426;2023-05-10T05:49:31;71.38;;;28.73;;
49730;SDS011;35622;52.008;5.426;2023-05-10T05:52:00;76.57;;;29.80;;
49730;SDS011;35622;52.008;5.426;2023-05-10T05:54:26;71.78;;;29.35;;
49730;SDS011;35622;52.008;5.426;2023-05-10T05:56:56;69.28;;;28.40;;
49730;SDS011;35622;52.008;5.426;2023-05-10T05:59:22;77.95;;;31.02;;
49730;SDS011;35622;52.008;5.426;2023-05-10T06:01:48;73.70;;;29.92;;
49730;SDS011;35622;52.008;5.426;2023-05-10T06:04:14;82.05;;;33.25;;
49730;SDS011;35622;52.008;5.426;2023-05-10T06:06:40;81.82;;;33.13;;
49730;SDS011;35622;52.008;5.426;2023-05-10T06:09:06;83.07;;;32.83;;
49730;SDS011;35622;52.008;5.426;2023-05-10T06:11:31;85.30;;;32.40;;
49730;SDS011;35622;52.008;5.426;2023-05-10T06:13:57;80.68;;;33.40;;
49730;SDS011;35622;52.008;5.426;2023-05-10T06:16:24;86.80;;;34.83;;
49730;SDS011;35622;52.008;5.426;2023-05-10T06:18:49;81.88;;;33.38;;
49730;SDS011;35622;52.008;5.426;2023-05-10T06:21:16;76.70;;;33.97;;
49730;SDS011;35622;52.008;5.426;2023-05-10T06:23:41;69.05;;;31.42;;
49730;SDS011;35622;52.008;5.426;2023-05-10T06:26:07;77.78;;;32.97;;
49730;SDS011;35622;52.008;5.426;2023-05-10T06:28:32;86.90;;;34.28;;
49730;SDS011;35622;52.008;5.426;2023-05-10T06:30:58;74.53;;;32.00;;
49730;SDS011;35622;52.008;5.426;2023-05-10T06:33:24;80.57;;;33.28;;
49730;SDS011;35622;52.008;5.426;2023-05-10T06:35:50;78.28;;;34.67;;
49730;SDS011;35622;52.008;5.426;2023-05-10T06:38:16;73.93;;;32.50;;
49730;SDS011;35622;52.008;5.426;2023-05-10T06:40:42;73.78;;;32.75;;
49730;SDS011;35622;52.008;5.426;2023-05-10T06:43:08;77.03;;;32.55;;
49730;SDS011;35622;52.008;5.426;2023-05-10T06:45:34;68.80;;;31.38;;
49730;SDS011;35622;52.008;5.426;2023-05-10T06:47:59;64.47;;;31.10;;
49730;SDS011;35622;52.008;5.426;2023-05-10T06:50:25;65.90;;;30.33;;
49730;SDS011;35622;52.008;5.426;2023-05-10T06:52:51;65.75;;;30.33;;
49730;SDS011;35622;52.008;5.426;2023-05-10T06:55:17;65.30;;;29.50;;
49730;SDS011;35622;52.008;5.426;2023-05-10T06:57:42;59.42;;;29.30;;
49730;SDS011;35622;52.008;5.426;2023-05-10T07:00:08;59.70;;;29.08;;
49730;SDS011;35622;52.008;5.426;2023-05-10T07:02:34;59.28;;;29.23;;
49730;SDS011;35622;52.008;5.426;2023-05-10T07:05:00;59.65;;;28.13;;
49730;SDS011;35622;52.008;5.426;2023-05-10T07:07:27;54.42;;;27.20;;
49730;SDS011;35622;52.008;5.426;2023-05-10T07:09:52;50.90;;;27.00;;
49730;SDS011;35622;52.008;5.426;2023-05-10T07:12:18;45.35;;;25.08;;
49730;SDS011;35622;52.008;5.426;2023-05-10T07:14:44;41.78;;;23.00;;
49730;SDS011;35622;52.008;5.426;2023-05-10T07:17:10;36.60;;;20.27;;
49730;SDS011;35622;52.008;5.426;2023-05-10T07:19:36;43.30;;;23.08;;
49730;SDS011;35622;52.008;5.426;2023-05-10T07:22:01;38.38;;;20.85;;
49730;SDS011;35622;52.008;5.426;2023-05-10T07:24:27;38.83;;;20.95;;
49730;SDS011;35622;52.008;5.426;2023-05-10T07:26:52;30.08;;;17.45;;
49730;SDS011;35622;52.008;5.426;2023-05-10T07:29:18;34.03;;;18.23;;
49730;SDS011;35622;52.008;5.426;2023-05-10T07:31:43;32.13;;;17.10;;
49730;SDS011;35622;52.008;5.426;2023-05-10T07:34:09;26.00;;;15.75;;
49730;SDS011;35622;52.008;5.426;2023-05-10T07:36:34;23.27;;;13.20;;
49730;SDS011;35622;52.008;5.426;2023-05-10T07:39:00;25.20;;;12.27;;
49730;SDS011;35622;52.008;5.426;2023-05-10T07:41:26;19.73;;;10.60;;
49730;SDS011;35622;52.008;5.426;2023-05-10T07:43:53;21.58;;;11.65;;
49730;SDS011;35622;52.008;5.426;2023-05-10T07:46:18;17.45;;;9.95;;
49730;SDS011;35622;52.008;5.426;2023-05-10T07:48:44;15.52;;;9.52;;
49730;SDS011;35622;52.008;5.426;2023-05-10T07:51:10;14.55;;;8.52;;
49730;SDS011;35622;52.008;5.426;2023-05-10T07:53:37;13.75;;;8.43;;
49730;SDS011;35622;52.008;5.426;2023-05-10T07:56:19;10.05;;;7.28;;
49730;SDS011;35622;52.008;5.426;2023-05-10T07:58:47;12.60;;;7.82;;
49730;SDS011;35622;52.008;5.426;2023-05-10T08:01:12;13.63;;;7.78;;
49730;SDS011;35622;52.008;5.426;2023-05-10T08:03:38;14.05;;;8.35;;
49730;SDS011;35622;52.008;5.426;2023-05-10T08:06:03;12.52;;;7.88;;
49730;SDS011;35622;52.008;5.426;2023-05-10T08:08:29;16.60;;;8.65;;
49730;SDS011;35622;52.008;5.426;2023-05-10T08:10:55;15.63;;;8.77;;
49730;SDS011;35622;52.008;5.426;2023-05-10T08:13:20;15.90;;;9.05;;
49730;SDS011;35622;52.008;5.426;2023-05-10T08:15:46;15.52;;;7.93;;
49730;SDS011;35622;52.008;5.426;2023-05-10T08:18:12;13.85;;;8.15;;
49730;SDS011;35622;52.008;5.426;2023-05-10T08:20:37;15.05;;;8.75;;
49730;SDS011;35622;52.008;5.426;2023-05-10T08:23:03;16.02;;;9.20;;
49730;SDS011;35622;52.008;5.426;2023-05-10T08:25:29;15.57;;;8.60;;
49730;SDS011;35622;52.008;5.426;2023-05-10T08:27:54;16.00;;;8.93;;
49730;SDS011;35622;52.008;5.426;2023-05-10T08:30:20;13.93;;;8.38;;
49730;SDS011;35622;52.008;5.426;2023-05-10T08:32:45;13.85;;;8.10;;
49730;SDS011;35622;52.008;5.426;2023-05-10T08:35:11;13.65;;;7.82;;
49730;SDS011;35622;52.008;5.426;2023-05-10T08:37:36;12.77;;;8.50;;
49730;SDS011;35622;52.008;5.426;2023-05-10T08:40:02;12.93;;;7.68;;
49730;SDS011;35622;52.008;5.426;2023-05-10T08:42:28;13.98;;;8.23;;
49730;SDS011;35622;52.008;5.426;2023-05-10T08:44:59;12.15;;;7.78;;
49730;SDS011;35622;52.008;5.426;2023-05-10T08:47:27;14.90;;;7.97;;
49730;SDS011;35622;52.008;5.426;2023-05-10T08:49:54;12.13;;;7.57;;
49730;SDS011;35622;52.008;5.426;2023-05-10T08:52:20;11.10;;;7.00;;
49730;SDS011;35622;52.008;5.426;2023-05-10T08:54:48;12.52;;;7.68;;
49730;SDS011;35622;52.008;5.426;2023-05-10T08:57:14;13.00;;;7.70;;
49730;SDS011;35622;52.008;5.426;2023-05-10T08:59:40;12.00;;;8.05;;
49730;SDS011;35622;52.008;5.426;2023-05-10T09:02:06;15.93;;;8.27;;
49730;SDS011;35622;52.008;5.426;2023-05-10T09:04:33;13.90;;;8.20;;
49730;SDS011;35622;52.008;5.426;2023-05-10T09:06:58;13.23;;;7.72;;
49730;SDS011;35622;52.008;5.426;2023-05-10T09:09:24;15.00;;;8.32;;
49730;SDS011;35622;52.008;5.426;2023-05-10T09:11:51;14.32;;;8.55;;
49730;SDS011;35622;52.008;5.426;2023-05-10T09:14:17;13.90;;;8.15;;
49730;SDS011;35622;52.008;5.426;2023-05-10T09:16:44;14.95;;;8.60;;
49730;SDS011;35622;52.008;5.426;2023-05-10T09:19:10;10.38;;;7.43;;
49730;SDS011;35622;52.008;5.426;2023-05-10T09:21:36;13.20;;;8.50;;
49730;SDS011;35622;52.008;5.426;2023-05-10T09:24:06;13.05;;;8.43;;
49730;SDS011;35622;52.008;5.426;2023-05-10T09:26:33;13.45;;;8.07;;
49730;SDS011;35622;52.008;5.426;2023-05-10T09:29:00;11.73;;;7.70;;
49730;SDS011;35622;52.008;5.426;2023-05-10T09:34:17;13.27;;;7.82;;
49730;SDS011;35622;52.008;5.426;2023-05-10T09:36:51;16.15;;;8.60;;
49730;SDS011;35622;52.008;5.426;2023-05-10T09:39:34;16.65;;;8.82;;
49730;SDS011;35622;52.008;5.426;2023-05-10T09:42:03;14.60;;;8.30;;
49730;SDS011;35622;52.008;5.426;2023-05-10T09:44:33;13.05;;;8.23;;
49730;SDS011;35622;52.008;5.426;2023-05-10T09:47:00;13.40;;;8.43;;
49730;SDS011;35622;52.008;5.426;2023-05-10T09:49:26;14.45;;;8.00;;
49730;SDS011;35622;52.008;5.426;2023-05-10T09:52:05;13.20;;;8.50;;
49730;SDS011;35622;52.008;5.426;2023-05-10T09:54:32;13.57;;;8.52;;
49730;SDS011;35622;52.008;5.426;2023-05-10T09:56:58;13.00;;;7.97;;
49730;SDS011;35622;52.008;5.426;2023-05-10T09:59:25;12.95;;;7.82;;
49730;SDS011;35622;52.008;5.426;2023-05-10T10:01:52;14.20;;;7.93;;
49730;SDS011;35622;52.008;5.426;2023-05-10T10:04:21;10.52;;;7.35;;
49730;SDS011;35622;52.008;5.426;2023-05-10T10:06:46;11.38;;;7.85;;
49730;SDS011;35622;52.008;5.426;2023-05-10T10:09:22;9.60;;;6.30;;
49730;SDS011;35622;52.008;5.426;2023-05-10T10:11:49;10.52;;;7.00;;
49730;SDS011;35622;52.008;5.426;2023-05-10T10:14:14;14.60;;;7.38;;
49730;SDS011;35622;52.008;5.426;2023-05-10T10:16:43;10.10;;;6.82;;
49730;SDS011;35622;52.008;5.426;2023-05-10T10:19:09;12.00;;;7.70;;
49730;SDS011;35622;52.008;5.426;2023-05-10T10:21:35;10.57;;;7.50;;
49730;SDS011;35622;52.008;5.426;2023-05-10T10:24:01;10.63;;;7.38;;
49730;SDS011;35622;52.008;5.426;2023-05-10T10:26:26;12.57;;;7.50;;
49730;SDS011;35622;52.008;5.426;2023-05-10T10:33:59;9.98;;;7.22;;
49730;SDS011;35622;52.008;5.426;2023-05-10T10:36:28;12.98;;;7.15;;
49730;SDS011;35622;52.008;5.426;2023-05-10T10:49:38;11.70;;;7.68;;
49730;SDS011;35622;52.008;5.426;2023-05-10T10:57:44;14.07;;;7.45;;
49730;SDS011;35622;52.008;5.426;2023-05-10T11:00:23;10.23;;;6.53;;
49730;SDS011;35622;52.008;5.426;2023-05-10T11:02:54;11.82;;;7.07;;
49730;SDS011;35622;52.008;5.426;2023-05-10T11:08:45;11.25;;;7.43;;
49730;SDS011;35622;52.008;5.426;2023-05-10T11:11:14;10.65;;;6.72;;
49730;SDS011;35622;52.008;5.426;2023-05-10T11:13:43;13.50;;;6.88;;
49730;SDS011;35622;52.008;5.426;2023-05-10T11:16:22;8.85;;;5.72;;
49730;SDS011;35622;52.008;5.426;2023-05-10T11:21:31;10.07;;;6.45;;
49730;SDS011;35622;52.008;5.426;2023-05-10T11:23:58;9.40;;;6.45;;
49730;SDS011;35622;52.008;5.426;2023-05-10T11:26:25;11.38;;;7.18;;
49730;SDS011;35622;52.008;5.426;2023-05-10T11:28:56;10.00;;;6.68;;
49730;SDS011;35622;52.008;5.426;2023-05-10T11:31:22;8.32;;;5.95;;
49730;SDS011;35622;52.008;5.426;2023-05-10T11:33:51;9.90;;;6.20;;
49730;SDS011;35622;52.008;5.426;2023-05-10T11:36:19;7.63;;;5.93;;
49730;SDS011;35622;52.008;5.426;2023-05-10T11:38:45;9.32;;;5.63;;
49730;SDS011;35622;52.008;5.426;2023-05-10T11:41:11;8.10;;;5.75;;
49730;SDS011;35622;52.008;5.426;2023-05-10T11:43:41;7.80;;;5.20;;
49730;SDS011;35622;52.008;5.426;2023-05-10T11:46:08;7.82;;;5.40;;
49730;SDS011;35622;52.008;5.426;2023-05-10T11:48:36;8.02;;;4.95;;
49730;SDS011;35622;52.008;5.426;2023-05-10T11:51:03;7.15;;;4.95;;
49730;SDS011;35622;52.008;5.426;2023-05-10T11:53:30;8.48;;;5.15;;
49730;SDS011;35622;52.008;5.426;2023-05-10T11:56:09;7.60;;;4.38;;
49730;SDS011;35622;52.008;5.426;2023-05-10T11:58:36;6.03;;;3.78;;
49730;SDS011;35622;52.008;5.426;2023-05-10T12:01:02;7.15;;;4.13;;
49730;SDS011;35622;52.008;5.426;2023-05-10T12:03:29;6.90;;;3.85;;
49730;SDS011;35622;52.008;5.426;2023-05-10T12:05:56;5.50;;;4.18;;
49730;SDS011;35622;52.008;5.426;2023-05-10T12:08:22;5.55;;;3.92;;
49730;SDS011;35622;52.008;5.426;2023-05-10T12:10:49;4.93;;;3.92;;
49730;SDS011;35622;52.008;5.426;2023-05-10T12:13:16;6.30;;;3.97;;
49730;SDS011;35622;52.008;5.426;2023-05-10T12:15:42;4.95;;;3.55;;
49730;SDS011;35622;52.008;5.426;2023-05-10T12:18:12;4.57;;;3.78;;
49730;SDS011;35622;52.008;5.426;2023-05-10T12:20:39;5.90;;;3.90;;
49730;SDS011;35622;52.008;5.426;2023-05-10T12:23:05;6.70;;;3.45;;
49730;SDS011;35622;52.008;5.426;2023-05-10T12:25:33;5.40;;;3.40;;
49730;SDS011;35622;52.008;5.426;2023-05-10T12:28:02;5.60;;;3.58;;
49730;SDS011;35622;52.008;5.426;2023-05-10T12:30:30;7.93;;;3.72;;
49730;SDS011;35622;52.008;5.426;2023-05-10T12:35:32;6.20;;;3.80;;
49730;SDS011;35622;52.008;5.426;2023-05-10T12:37:59;6.70;;;4.03;;
49730;SDS011;35622;52.008;5.426;2023-05-10T12:40:25;5.95;;;3.70;;
49730;SDS011;35622;52.008;5.426;2023-05-10T12:42:51;5.00;;;3.85;;
49730;SDS011;35622;52.008;5.426;2023-05-10T12:45:17;6.05;;;3.97;;
49730;SDS011;35622;52.008;5.426;2023-05-10T12:47:43;5.45;;;3.40;;
49730;SDS011;35622;52.008;5.426;2023-05-10T12:50:08;7.45;;;4.00;;
49730;SDS011;35622;52.008;5.426;2023-05-10T12:52:35;5.07;;;3.38;;
49730;SDS011;35622;52.008;5.426;2023-05-10T12:57:48;13.93;;;9.68;;
49730;SDS011;35622;52.008;5.426;2023-05-10T13:00:14;13.55;;;8.52;;
49730;SDS011;35622;52.008;5.426;2023-05-10T13:02:40;12.77;;;9.55;;
49730;SDS011;35622;52.008;5.426;2023-05-10T13:05:05;12.43;;;8.70;;
49730;SDS011;35622;52.008;5.426;2023-05-10T13:07:31;11.63;;;7.97;;
49730;SDS011;35622;52.008;5.426;2023-05-10T13:09:57;10.85;;;6.97;;
49730;SDS011;35622;52.008;5.426;2023-05-10T13:12:23;8.38;;;6.30;;
49730;SDS011;35622;52.008;5.426;2023-05-10T13:14:48;8.88;;;6.68;;
49730;SDS011;35622;52.008;5.426;2023-05-10T13:17:14;7.00;;;5.90;;
49730;SDS011;35622;52.008;5.426;2023-05-10T13:19:39;8.95;;;6.10;;
49730;SDS011;35622;52.008;5.426;2023-05-10T13:22:05;6.93;;;5.95;;
49730;SDS011;35622;52.008;5.426;2023-05-10T13:24:31;8.57;;;6.18;;
49730;SDS011;35622;52.008;5.426;2023-05-10T13:26:57;9.32;;;6.85;;
49730;SDS011;35622;52.008;5.426;2023-05-10T13:29:23;7.93;;;6.40;;
49730;SDS011;35622;52.008;5.426;2023-05-10T13:31:49;10.30;;;6.85;;
49730;SDS011;35622;52.008;5.426;2023-05-10T13:34:14;8.88;;;6.88;;
49730;SDS011;35622;52.008;5.426;2023-05-10T13:36:40;10.93;;;7.80;;
49730;SDS011;35622;52.008;5.426;2023-05-10T13:39:06;10.40;;;7.10;;
49730;SDS011;35622;52.008;5.426;2023-05-10T13:41:31;11.25;;;7.63;;
49730;SDS011;35622;52.008;5.426;2023-05-10T13:43:57;9.63;;;6.43;;
49730;SDS011;35622;52.008;5.426;2023-05-10T13:46:22;12.93;;;6.72;;
49730;SDS011;35622;52.008;5.426;2023-05-10T13:48:48;8.93;;;5.75;;
49730;SDS011;35622;52.008;5.426;2023-05-10T13:51:13;11.75;;;6.35;;
49730;SDS011;35622;52.008;5.426;2023-05-10T13:53:39;9.23;;;5.95;;
49730;SDS011;35622;52.008;5.426;2023-05-10T13:56:04;10.88;;;6.75;;
49730;SDS011;35622;52.008;5.426;2023-05-10T13:58:30;9.48;;;5.80;;
49730;SDS011;35622;52.008;5.426;2023-05-10T14:00:56;10.73;;;6.15;;
49730;SDS011;35622;52.008;5.426;2023-05-10T14:03:21;10.63;;;5.85;;
49730;SDS011;35622;52.008;5.426;2023-05-10T14:05:47;9.80;;;6.28;;
49730;SDS011;35622;52.008;5.426;2023-05-10T14:08:13;11.38;;;6.65;;
49730;SDS011;35622;52.008;5.426;2023-05-10T14:10:39;12.35;;;6.85;;
49730;SDS011;35622;52.008;5.426;2023-05-10T14:13:05;11.95;;;7.00;;
49730;SDS011;35622;52.008;5.426;2023-05-10T14:15:31;13.63;;;6.88;;
49730;SDS011;35622;52.008;5.426;2023-05-10T14:17:56;13.35;;;6.55;;
49730;SDS011;35622;52.008;5.426;2023-05-10T14:20:22;13.63;;;7.25;;
49730;SDS011;35622;52.008;5.426;2023-05-10T14:22:48;13.18;;;7.20;;
49730;SDS011;35622;52.008;5.426;2023-05-10T14:25:13;12.75;;;7.38;;
49730;SDS011;35622;52.008;5.426;2023-05-10T14:27:39;12.18;;;7.35;;
49730;SDS011;35622;52.008;5.426;2023-05-10T14:30:05;11.77;;;7.32;;
49730;SDS011;35622;52.008;5.426;2023-05-10T14:32:31;13.80;;;7.68;;
49730;SDS011;35622;52.008;5.426;2023-05-10T14:34:57;12.65;;;7.00;;
49730;SDS011;35622;52.008;5.426;2023-05-10T14:37:22;11.05;;;6.60;;
49730;SDS011;35622;52.008;5.426;2023-05-10T14:39:48;13.20;;;7.60;;
49730;SDS011;35622;52.008;5.426;2023-05-10T14:42:13;14.27;;;8.27;;
49730;SDS011;35622;52.008;5.426;2023-05-10T14:44:39;15.13;;;7.70;;
49730;SDS011;35622;52.008;5.426;2023-05-10T14:47:04;15.07;;;7.85;;
49730;SDS011;35622;52.008;5.426;2023-05-10T14:49:30;14.63;;;8.15;;
49730;SDS011;35622;52.008;5.426;2023-05-10T14:51:55;13.25;;;8.02;;
49730;SDS011;35622;52.008;5.426;2023-05-10T14:54:21;16.30;;;8.77;;
49730;SDS011;35622;52.008;5.426;2023-05-10T14:56:47;13.07;;;7.72;;
49730;SDS011;35622;52.008;5.426;2023-05-10T14:59:14;16.50;;;8.98;;
49730;SDS011;35622;52.008;5.426;2023-05-10T15:01:40;15.10;;;10.02;;
49730;SDS011;35622;52.008;5.426;2023-05-10T15:04:07;28.73;;;17.95;;
49730;SDS011;35622;52.008;5.426;2023-05-10T15:06:33;15.82;;;9.93;;
49730;SDS011;35622;52.008;5.426;2023-05-10T15:09:00;18.20;;;11.35;;
49730;SDS011;35622;52.008;5.426;2023-05-10T15:11:28;13.40;;;8.23;;
49730;SDS011;35622;52.008;5.426;2023-05-10T15:13:54;17.15;;;11.50;;
49730;SDS011;35622;52.008;5.426;2023-05-10T15:16:19;15.55;;;8.82;;
49730;SDS011;35622;52.008;5.426;2023-05-10T15:18:45;12.48;;;7.15;;
49730;SDS011;35622;52.008;5.426;2023-05-10T15:21:11;14.00;;;8.80;;
49730;SDS011;35622;52.008;5.426;2023-05-10T15:23:37;11.90;;;8.35;;